createdAt,value
2017-10-21T00:01:52.110Z,98303.42
2017-10-21T00:04:20.540Z,98314.48
2017-10-21T00:06:49.831Z,98315.00
2017-10-21T00:09:21.607Z,98318.87
2017-10-21T00:11:50.889Z,98316.25
2017-10-21T00:14:22.370Z,98316.45
2017-10-21T00:16:52.948Z,98313.49
2017-10-21T00:19:21.274Z,98310.55
2017-10-21T00:21:51.491Z,98309.64
2017-10-21T00:24:20.872Z,98299.66
2017-10-21T00:26:50.385Z,98292.42
2017-10-21T00:29:18.758Z,98300.01
2017-10-21T00:31:51.162Z,98295.17
2017-10-21T00:34:20.445Z,98300.86
2017-10-21T00:36:48.844Z,98301.95
2017-10-21T00:39:18.154Z,98296.41
2017-10-21T00:41:46.491Z,98290.38
2017-10-21T00:44:14.919Z,98294.91
2017-10-21T00:46:43.263Z,98300.92
2017-10-21T00:49:14.630Z,98298.39
2017-10-21T00:51:45.858Z,98296.88
2017-10-21T00:54:14.258Z,98289.72
2017-10-21T00:56:43.555Z,98289.58
2017-10-21T00:59:12.853Z,98281.52
2017-10-21T01:01:42.176Z,98283.91
2017-10-21T01:04:12.714Z,98279.00
2017-10-21T01:06:43.232Z,98278.73
2017-10-21T01:09:12.513Z,98269.44
2017-10-21T01:11:41.836Z,98266.98
2017-10-21T01:14:11.124Z,98265.17
2017-10-21T01:16:40.425Z,98267.97
2017-10-21T01:19:09.775Z,98273.45
2017-10-21T01:21:40.232Z,98273.84
2017-10-21T01:24:08.647Z,98265.66
2017-10-21T01:26:37.915Z,98273.62
2017-10-21T01:29:06.586Z,98268.34
2017-10-21T01:31:38.678Z,98262.47
2017-10-21T01:34:07.342Z,98263.64
2017-10-21T01:36:35.751Z,98259.90
2017-10-21T01:39:05.062Z,98261.83
2017-10-21T01:41:34.367Z,98260.15
2017-10-21T01:44:03.654Z,98254.33
2017-10-21T01:46:34.201Z,98254.33
2017-10-21T01:49:03.506Z,98250.88
2017-10-21T01:51:33.097Z,98253.73
2017-10-21T01:54:03.642Z,98243.70
2017-10-21T01:56:32.978Z,98244.76
2017-10-21T01:59:02.280Z,98247.97
2017-10-21T02:01:30.731Z,98249.88
2017-10-21T02:03:59.923Z,98243.95
2017-10-21T02:06:29.217Z,98244.30
2017-10-21T02:08:59.458Z,98249.98
2017-10-21T02:11:28.730Z,98242.64
2017-10-21T02:13:57.151Z,98243.52
2017-10-21T02:16:27.669Z,98237.02
2017-10-21T02:18:56.976Z,98241.74
2017-10-21T02:21:26.267Z,98240.46
2017-10-21T02:23:55.566Z,98235.29
2017-10-21T02:26:25.128Z,98242.23
2017-10-21T02:28:53.530Z,98239.83
2017-10-21T02:31:26.806Z,98244.77
2017-10-21T02:33:55.203Z,98241.49
2017-10-21T02:36:23.591Z,98235.75
2017-10-21T02:38:55.672Z,98232.41
2017-10-21T02:41:24.964Z,98227.58
2017-10-21T02:43:55.519Z,98220.80
2017-10-21T02:46:24.809Z,98225.20
2017-10-21T02:48:54.096Z,98223.87
2017-10-21T02:51:22.484Z,98225.34
2017-10-21T02:53:51.811Z,98227.25
2017-10-21T02:56:20.197Z,98231.87
2017-10-21T02:58:48.536Z,98231.73
2017-10-21T03:01:16.935Z,98229.62
2017-10-21T03:03:46.220Z,98224.17
2017-10-21T03:06:14.625Z,98219.80
2017-10-21T03:08:42.975Z,98216.43
2017-10-21T03:11:15.308Z,98221.33
2017-10-21T03:13:43.726Z,98216.77
2017-10-21T03:16:12.116Z,98210.50
2017-10-21T03:18:40.512Z,98205.48
2017-10-21T03:21:09.829Z,98201.33
2017-10-21T03:23:44.072Z,98197.48
2017-10-21T03:26:12.393Z,98204.88
2017-10-21T03:28:42.945Z,98203.98
2017-10-21T03:31:12.230Z,98204.52
2017-10-21T03:33:41.543Z,98206.39
2017-10-21T03:36:10.853Z,98211.17
2017-10-21T03:38:40.147Z,98209.41
2017-10-21T03:41:09.445Z,98214.15
2017-10-21T03:43:39.501Z,98216.52
2017-10-21T03:46:08.058Z,98208.06
2017-10-21T03:48:37.350Z,98208.92
2017-10-21T03:51:06.738Z,98204.59
2017-10-21T03:53:36.267Z,98203.21
2017-10-21T03:56:05.620Z,98208.10
2017-10-21T03:58:34.025Z,98207.05
2017-10-21T04:01:02.379Z,98204.75
2017-10-21T04:03:32.871Z,98201.08
2017-10-21T04:06:03.383Z,98188.70
2017-10-21T04:08:33.527Z,98188.78
2017-10-21T04:11:01.975Z,98182.72
2017-10-21T04:13:31.343Z,98187.46
2017-10-21T04:16:00.700Z,98191.36
2017-10-21T04:18:29.926Z,98194.01
2017-10-21T04:20:58.280Z,98186.69
2017-10-21T04:23:27.542Z,98192.28
2017-10-21T04:25:55.955Z,98189.13
2017-10-21T04:28:25.241Z,98187.13
2017-10-21T04:30:53.643Z,98188.76
2017-10-21T04:33:23.081Z,98183.84
2017-10-21T04:35:51.608Z,98183.69
2017-10-21T04:38:20.109Z,98185.02
2017-10-21T04:40:48.433Z,98191.78
2017-10-21T04:43:16.793Z,98185.86
2017-10-21T04:45:45.142Z,98185.75
2017-10-21T04:48:14.462Z,98184.91
2017-10-21T04:50:42.844Z,98178.11
2017-10-21T04:53:11.204Z,98175.76
2017-10-21T04:55:40.532Z,98173.98
2017-10-21T04:58:08.885Z,98176.66
2017-10-21T05:00:38.604Z,98176.45
2017-10-21T05:03:06.997Z,98184.86
2017-10-21T05:05:35.317Z,98178.20
2017-10-21T05:08:03.661Z,98173.11
2017-10-21T05:10:32.004Z,98174.09
2017-10-21T05:13:01.328Z,98174.21
2017-10-21T05:15:30.617Z,98176.77
2017-10-21T05:17:59.932Z,98173.16
2017-10-21T05:20:29.209Z,98175.75
2017-10-21T05:22:58.537Z,98167.41
2017-10-21T05:25:26.931Z,98168.51
2017-10-21T05:27:55.271Z,98168.22
2017-10-21T05:30:25.544Z,98167.14
2017-10-21T05:32:54.793Z,98169.84
2017-10-21T05:35:23.202Z,98165.53
2017-10-21T05:37:51.557Z,98172.78
2017-10-21T05:40:19.974Z,98179.73
2017-10-21T05:42:48.340Z,98178.45
2017-10-21T05:45:16.686Z,98174.31
2017-10-21T05:47:45.095Z,98171.14
2017-10-21T05:50:14.382Z,98172.36
2017-10-21T05:52:43.691Z,98162.78
2017-10-21T05:55:12.994Z,98159.38
2017-10-21T05:57:42.297Z,98159.29
2017-10-21T06:00:11.617Z,98153.58
2017-10-21T06:02:39.970Z,98158.03
2017-10-21T06:05:09.304Z,98160.23
2017-10-21T06:07:37.652Z,98162.27
2017-10-21T06:10:07.426Z,98160.98
2017-10-21T06:12:35.958Z,98165.59
2017-10-21T06:15:05.245Z,98163.20
2017-10-21T06:17:39.343Z,98160.59
2017-10-21T06:20:07.845Z,98161.82
2017-10-21T06:22:37.159Z,98164.30
2017-10-21T06:25:05.522Z,98166.80
2017-10-21T06:27:33.934Z,98167.70
2017-10-21T06:30:02.282Z,98166.23
2017-10-21T06:32:30.680Z,98168.22
2017-10-21T06:34:59.977Z,98161.98
2017-10-21T06:37:29.278Z,98161.59
2017-10-21T06:39:58.615Z,98161.61
2017-10-21T06:42:26.986Z,98156.41
2017-10-21T06:44:55.450Z,98153.94
2017-10-21T06:47:23.774Z,98146.91
2017-10-21T06:49:52.137Z,98139.55
2017-10-21T06:52:20.498Z,98136.84
2017-10-21T06:54:48.861Z,98135.14
2017-10-21T06:57:18.179Z,98135.64
2017-10-21T06:59:46.540Z,98138.44
2017-10-21T07:02:15.329Z,98143.91
2017-10-21T07:04:43.996Z,98141.97
2017-10-21T07:07:12.321Z,98136.75
2017-10-21T07:09:42.851Z,98146.76
2017-10-21T07:12:11.203Z,98140.36
2017-10-21T07:14:40.537Z,98141.87
2017-10-21T07:17:08.940Z,98147.95
2017-10-21T07:19:37.670Z,98152.52
2017-10-21T07:22:06.000Z,98155.17
2017-10-21T07:24:34.341Z,98153.75
2017-10-21T07:27:03.666Z,98151.27
2017-10-21T07:29:32.023Z,98147.03
2017-10-21T07:32:01.338Z,98147.86
2017-10-21T07:34:29.681Z,98147.87
2017-10-21T07:36:58.500Z,98151.89
2017-10-21T07:39:26.897Z,98150.50
2017-10-21T07:41:55.816Z,98147.70
2017-10-21T07:44:24.163Z,98150.34
2017-10-21T07:46:52.506Z,98157.33
2017-10-21T07:49:20.915Z,98159.45
2017-10-21T07:51:49.272Z,98152.41
2017-10-21T07:54:18.994Z,98148.08
2017-10-21T07:56:47.561Z,98140.11
2017-10-21T07:59:15.989Z,98130.84
2017-10-21T08:01:44.339Z,98137.69
2017-10-21T08:04:13.649Z,98145.09
2017-10-21T08:06:42.042Z,98152.19
2017-10-21T08:09:10.380Z,98161.80
2017-10-21T08:11:38.784Z,98162.39
2017-10-21T08:14:08.059Z,98164.92
2017-10-21T08:16:36.438Z,98170.98
2017-10-21T08:19:04.927Z,98159.57
2017-10-21T08:21:33.371Z,98153.49
2017-10-21T08:24:01.938Z,98151.98
2017-10-21T08:26:30.312Z,98144.69
2017-10-21T08:28:59.072Z,98124.37
2017-10-21T08:31:27.419Z,98132.63
2017-10-21T08:33:56.960Z,98143.03
2017-10-21T08:36:26.267Z,98145.53
2017-10-21T08:38:55.565Z,98142.70
2017-10-21T08:41:24.879Z,98147.30
2017-10-21T08:43:53.249Z,98146.00
2017-10-21T08:46:22.568Z,98142.52
2017-10-21T08:48:50.922Z,98148.11
2017-10-21T08:51:20.224Z,98147.59
2017-10-21T08:53:49.596Z,98145.45
2017-10-21T08:56:17.924Z,98130.86
2017-10-21T08:58:46.361Z,98123.36
2017-10-21T09:01:14.711Z,98124.55
2017-10-21T09:03:43.095Z,98166.38
2017-10-21T09:06:11.438Z,98170.34
2017-10-21T09:08:40.780Z,98154.53
2017-10-21T09:11:09.169Z,98154.42
2017-10-21T09:13:37.483Z,98164.84
2017-10-21T09:16:06.831Z,98164.64
2017-10-21T09:18:36.070Z,98168.47
2017-10-21T09:21:04.489Z,98167.25
2017-10-21T09:23:32.861Z,98155.59
2017-10-21T09:26:02.159Z,98155.57
2017-10-21T09:28:31.469Z,98158.80
2017-10-21T09:30:59.830Z,98158.96
2017-10-21T09:33:29.178Z,98160.67
2017-10-21T09:35:57.518Z,98157.23
2017-10-21T09:38:26.859Z,98158.24
2017-10-21T09:40:55.285Z,98160.08
2017-10-21T09:43:24.816Z,98163.63
2017-10-21T09:45:54.130Z,98156.31
2017-10-21T09:48:22.489Z,98156.70
2017-10-21T09:50:51.825Z,98158.13
2017-10-21T09:53:20.307Z,98152.73
2017-10-21T09:55:49.273Z,98154.16
2017-10-21T09:58:17.608Z,98156.87
2017-10-21T10:00:45.949Z,98153.73
2017-10-21T10:03:14.340Z,98154.81
2017-10-21T10:05:42.664Z,98155.43
2017-10-21T10:08:11.112Z,98152.47
2017-10-21T10:10:39.445Z,98150.55
2017-10-21T10:13:09.174Z,98153.56
2017-10-21T10:15:37.521Z,98154.15
2017-10-21T10:18:05.843Z,98153.23
2017-10-21T10:20:34.200Z,98148.28
2017-10-21T10:23:03.515Z,98141.59
2017-10-21T10:25:31.886Z,98146.91
2017-10-21T10:28:01.180Z,98144.99
2017-10-21T10:30:30.515Z,98148.03
2017-10-21T10:32:58.871Z,98152.26
2017-10-21T10:35:28.162Z,98149.83
2017-10-21T10:37:57.500Z,98150.41
2017-10-21T10:40:25.824Z,98147.27
2017-10-21T10:42:54.233Z,98150.33
2017-10-21T10:45:23.593Z,98142.43
2017-10-21T10:47:53.154Z,98143.42
2017-10-21T10:50:21.503Z,98140.48
2017-10-21T10:52:50.805Z,98141.67
2017-10-21T10:55:19.232Z,98137.72
2017-10-21T10:57:47.579Z,98139.34
2017-10-21T11:00:16.910Z,98139.56
2017-10-21T11:02:45.270Z,98141.04
2017-10-21T11:05:13.674Z,98140.61
2017-10-21T11:07:42.019Z,98143.42
2017-10-21T11:10:11.354Z,98131.03
2017-10-21T11:12:39.767Z,98128.50
2017-10-21T11:15:08.091Z,98127.20
2017-10-21T11:17:36.463Z,98127.99
2017-10-21T11:20:05.747Z,98126.55
2017-10-21T11:22:34.162Z,98129.02
2017-10-21T11:25:02.525Z,98126.27
2017-10-21T11:27:31.839Z,98123.81
2017-10-21T11:30:00.241Z,98119.84
2017-10-21T11:32:28.618Z,98127.64
2017-10-21T11:34:57.016Z,98122.20
2017-10-21T11:37:25.344Z,98127.17
2017-10-21T11:39:54.676Z,98123.91
2017-10-21T11:42:23.108Z,98127.96
2017-10-21T11:44:51.443Z,98131.78
2017-10-21T11:47:19.853Z,98137.12
2017-10-21T11:49:48.192Z,98132.70
2017-10-21T11:52:16.571Z,98123.67
2017-10-21T11:54:44.929Z,98124.13
2017-10-21T11:57:14.228Z,98124.70
2017-10-21T11:59:43.533Z,98127.84
2017-10-21T12:02:12.832Z,98127.64
2017-10-21T12:04:42.541Z,98120.11
2017-10-21T12:07:11.734Z,98134.70
2017-10-21T12:09:41.070Z,98127.64
2017-10-21T12:12:10.375Z,98134.44
2017-10-21T12:14:38.732Z,98124.70
2017-10-21T12:17:07.112Z,98128.11
2017-10-21T12:19:35.476Z,98121.80
2017-10-21T12:22:04.804Z,98113.69
2017-10-21T12:24:35.310Z,98121.50
2017-10-21T12:27:04.695Z,98119.88
2017-10-21T12:29:33.031Z,98110.17
2017-10-21T12:32:01.375Z,98107.56
2017-10-21T12:34:30.680Z,98112.47
2017-10-21T12:36:59.986Z,98117.73
2017-10-21T12:39:29.287Z,98110.74
2017-10-21T12:41:58.588Z,98111.83
2017-10-21T12:44:27.874Z,98113.81
2017-10-21T12:46:57.262Z,98111.83
2017-10-21T12:49:25.580Z,98112.59
2017-10-21T12:51:53.960Z,98114.17
2017-10-21T12:54:22.345Z,98117.02
2017-10-21T12:56:50.697Z,98115.66
2017-10-21T12:59:20.035Z,98117.39
2017-10-21T13:01:49.886Z,98112.42
2017-10-21T13:04:18.319Z,98111.11
2017-10-21T13:06:47.596Z,98114.35
2017-10-21T13:09:16.939Z,98121.44
2017-10-21T13:11:45.308Z,98110.45
2017-10-21T13:14:13.675Z,98109.75
2017-10-21T13:16:42.998Z,98106.53
2017-10-21T13:19:11.342Z,98106.77
2017-10-21T13:21:40.668Z,98088.29
2017-10-21T13:24:09.046Z,98091.30
2017-10-21T13:26:37.436Z,98099.34
2017-10-21T13:29:05.775Z,98111.30
2017-10-21T13:31:34.193Z,98083.53
2017-10-21T13:34:02.540Z,98100.55
2017-10-21T13:36:31.894Z,98102.97
2017-10-21T13:39:00.248Z,98111.22
2017-10-21T13:41:28.665Z,98112.00
2017-10-21T13:43:57.012Z,98113.36
2017-10-21T13:46:25.371Z,98108.16
2017-10-21T13:48:54.707Z,98102.30
2017-10-21T13:51:23.060Z,98106.79
2017-10-21T13:53:52.371Z,98103.63
2017-10-21T13:56:20.762Z,98104.81
2017-10-21T13:58:49.841Z,98105.11
2017-10-21T14:01:18.195Z,98104.81
2017-10-21T14:03:46.528Z,98106.03
2017-10-21T14:06:14.873Z,98094.01
2017-10-21T14:08:44.174Z,98094.78
2017-10-21T14:11:13.516Z,98087.41
2017-10-21T14:13:43.186Z,98078.56
2017-10-21T14:16:11.528Z,98074.23
2017-10-21T14:18:39.851Z,98083.50
2017-10-21T14:21:08.257Z,98093.23
2017-10-21T14:23:36.594Z,98087.34
2017-10-21T14:26:05.910Z,98082.23
2017-10-21T14:28:34.281Z,98082.06
2017-10-21T14:31:04.025Z,98088.98
2017-10-21T14:33:32.616Z,98096.99
2017-10-21T14:36:02.803Z,98098.15
2017-10-21T14:38:32.134Z,98098.48
2017-10-21T14:41:00.479Z,98097.09
2017-10-21T14:43:29.812Z,98087.16
2017-10-21T14:45:58.147Z,98090.16
2017-10-21T14:48:26.562Z,98097.93
2017-10-21T14:50:55.845Z,98092.91
2017-10-21T14:53:24.229Z,98088.25
2017-10-21T14:55:53.546Z,98087.20
2017-10-21T14:58:21.900Z,98092.24
2017-10-21T15:00:51.241Z,98095.79
2017-10-21T15:03:19.585Z,98092.58
2017-10-21T15:05:49.298Z,98095.11
2017-10-21T15:08:17.626Z,98101.67
2017-10-21T15:10:46.888Z,98092.27
2017-10-21T15:13:16.312Z,98099.09
2017-10-21T15:15:44.867Z,98094.89
2017-10-21T15:18:17.946Z,98092.33
2017-10-21T15:20:46.263Z,98070.67
2017-10-21T15:23:14.719Z,98078.20
2017-10-21T15:25:43.056Z,98073.44
2017-10-21T15:28:11.379Z,98085.02
2017-10-21T15:30:40.712Z,98093.14
2017-10-21T15:33:09.046Z,98086.45
2017-10-21T15:35:38.471Z,98081.72
2017-10-21T15:38:08.037Z,98089.27
2017-10-21T15:40:37.595Z,98087.47
2017-10-21T15:43:09.673Z,98080.38
2017-10-21T15:45:38.027Z,98094.05
2017-10-21T15:48:07.468Z,98089.30
2017-10-21T15:50:36.009Z,98084.84
2017-10-21T15:53:05.740Z,98093.39
2017-10-21T15:55:34.122Z,98085.31
2017-10-21T15:58:02.501Z,98081.56
2017-10-21T16:00:30.966Z,98095.66
2017-10-21T16:03:00.071Z,98103.02
2017-10-21T16:05:29.497Z,98115.69
2017-10-21T16:07:58.103Z,98124.49
2017-10-21T16:10:27.773Z,98137.19
2017-10-21T16:12:56.106Z,98134.89
2017-10-21T16:15:25.664Z,98134.06
2017-10-21T16:17:54.111Z,98139.69
2017-10-21T16:20:23.340Z,98138.19
2017-10-21T16:22:52.887Z,98129.06
2017-10-21T16:25:21.308Z,98140.58
2017-10-21T16:27:50.436Z,98160.46
2017-10-21T16:30:19.309Z,98159.86
2017-10-21T16:32:48.627Z,98150.48
2017-10-21T16:35:17.061Z,98152.89
2017-10-21T16:37:45.419Z,98133.30
2017-10-21T16:40:13.881Z,98144.93
2017-10-21T16:42:42.235Z,98141.70
2017-10-21T16:45:11.850Z,98135.22
2017-10-21T16:47:40.200Z,98146.58
2017-10-21T16:50:08.537Z,98124.25
2017-10-21T16:52:39.067Z,98100.55
2017-10-21T16:55:07.393Z,98140.57
2017-10-21T16:57:38.100Z,98150.69
2017-10-21T17:00:06.648Z,98118.54
2017-10-21T17:02:35.417Z,98112.79
2017-10-21T17:05:03.732Z,98120.36
2017-10-21T17:07:32.361Z,98123.70
2017-10-21T17:10:00.751Z,98139.47
2017-10-21T17:12:29.149Z,98147.13
2017-10-21T17:14:58.661Z,98141.69
2017-10-21T17:17:27.126Z,98137.03
2017-10-21T17:19:56.859Z,98141.78
2017-10-21T17:22:25.211Z,98153.78
2017-10-21T17:24:54.408Z,98144.31
2017-10-21T17:27:23.813Z,98148.34
2017-10-21T17:29:53.312Z,98158.13
2017-10-21T17:32:27.626Z,98161.22
2017-10-21T17:34:55.974Z,98156.86
2017-10-21T17:37:24.311Z,98166.96
2017-10-21T17:39:53.614Z,98171.03
2017-10-21T17:42:23.105Z,98178.68
2017-10-21T17:44:51.759Z,98183.28
2017-10-21T17:47:20.262Z,98189.66
2017-10-21T17:49:48.767Z,98184.91
2017-10-21T17:52:17.087Z,98179.97
2017-10-21T17:54:45.551Z,98188.66
2017-10-21T17:57:13.983Z,98177.92
2017-10-21T17:59:42.464Z,98183.80
2017-10-21T18:02:10.990Z,98167.24
2017-10-21T18:04:40.029Z,98164.50
2017-10-21T18:07:08.681Z,98159.88
2017-10-21T18:09:37.041Z,98160.28
2017-10-21T18:12:06.232Z,98165.59
2017-10-21T18:14:35.936Z,98188.48
2017-10-21T18:17:04.238Z,98180.42
2017-10-21T18:19:32.629Z,98162.06
2017-10-21T18:22:01.274Z,98162.66
2017-10-21T18:24:29.748Z,98175.77
2017-10-21T18:26:58.150Z,98184.11
2017-10-21T18:29:27.362Z,98194.27
2017-10-21T18:31:56.762Z,98202.11
2017-10-21T18:34:25.944Z,98187.13
2017-10-21T18:36:54.462Z,98191.55
2017-10-21T18:39:24.049Z,98184.09
2017-10-21T18:41:53.231Z,98183.99
2017-10-21T18:44:21.729Z,98184.75
2017-10-21T18:46:50.900Z,98170.56
2017-10-21T18:49:19.401Z,98175.30
2017-10-21T18:51:48.991Z,98166.59
2017-10-21T18:54:17.452Z,98170.94
2017-10-21T18:56:46.086Z,98170.46
2017-10-21T18:59:15.265Z,98175.90
2017-10-21T19:01:46.850Z,98177.02
2017-10-21T19:04:16.029Z,98189.08
2017-10-21T19:06:46.674Z,98183.48
2017-10-21T19:09:15.873Z,98196.30
2017-10-21T19:11:45.597Z,98192.03
2017-10-21T19:14:15.152Z,98190.25
2017-10-21T19:16:45.994Z,98191.83
2017-10-21T19:19:15.288Z,98186.17
2017-10-21T19:21:45.738Z,98180.92
2017-10-21T19:24:17.951Z,98171.94
2017-10-21T19:26:50.585Z,98174.47
2017-10-21T19:29:22.367Z,98175.39
2017-10-21T19:31:51.610Z,98180.44
2017-10-21T19:34:22.200Z,98192.92
2017-10-21T19:36:51.683Z,98200.71
2017-10-21T19:39:22.067Z,98194.56
2017-10-21T19:41:51.582Z,98192.75
2017-10-21T19:44:22.206Z,98190.72
2017-10-21T19:46:50.521Z,98196.20
2017-10-21T19:49:20.181Z,98203.55
2017-10-21T19:51:49.779Z,98197.09
2017-10-21T19:54:18.971Z,98197.38
2017-10-21T19:56:48.397Z,98190.52
2017-10-21T19:59:21.068Z,98195.78
2017-10-21T20:01:49.400Z,98194.16
2017-10-21T20:04:19.064Z,98205.95
2017-10-21T20:06:48.935Z,98205.22
2017-10-21T20:09:17.243Z,98192.92
2017-10-21T20:11:46.529Z,98202.33
2017-10-21T20:14:15.983Z,98199.80
2017-10-21T20:16:44.498Z,98209.98
2017-10-21T20:19:13.007Z,98216.91
2017-10-21T20:21:42.183Z,98199.70
2017-10-21T20:24:10.693Z,98201.92
2017-10-21T20:26:40.789Z,98201.20
2017-10-21T20:29:09.198Z,98209.79
2017-10-21T20:31:38.627Z,98223.09
2017-10-21T20:34:08.088Z,98211.50
2017-10-21T20:36:37.527Z,98222.67
2017-10-21T20:39:05.931Z,98226.92
2017-10-21T20:41:34.468Z,98225.28
2017-10-21T20:44:03.899Z,98223.97
2017-10-21T20:46:33.476Z,98229.70
2017-10-21T20:49:01.799Z,98221.22
2017-10-21T20:51:31.198Z,98223.13
2017-10-21T20:53:59.505Z,98228.52
2017-10-21T20:56:27.937Z,98207.95
2017-10-21T20:58:56.258Z,98216.86
2017-10-21T21:01:24.714Z,98224.28
2017-10-21T21:03:53.279Z,98221.36
2017-10-21T21:06:22.682Z,98220.36
2017-10-21T21:08:53.689Z,98208.27
2017-10-21T21:11:26.817Z,98206.34
2017-10-21T21:13:58.516Z,98206.37
2017-10-21T21:16:26.973Z,98210.99
2017-10-21T21:18:55.342Z,98214.23
2017-10-21T21:21:23.799Z,98214.09
2017-10-21T21:23:55.682Z,98211.17
2017-10-21T21:26:24.063Z,98212.47
2017-10-21T21:28:53.369Z,98208.73
2017-10-21T21:31:22.100Z,98208.53
2017-10-21T21:33:50.427Z,98207.83
2017-10-21T21:36:19.702Z,98205.36
2017-10-21T21:38:49.128Z,98212.94
2017-10-21T21:41:21.723Z,98217.94
2017-10-21T21:43:50.206Z,98208.67
2017-10-21T21:46:19.716Z,98208.55
2017-10-21T21:48:48.070Z,98206.55
2017-10-21T21:51:17.490Z,98210.37
2017-10-21T21:53:47.286Z,98206.90
2017-10-21T21:56:16.962Z,98211.94
2017-10-21T21:58:46.117Z,98209.91
2017-10-21T22:01:14.563Z,98201.31
2017-10-21T22:03:43.023Z,98189.55
2017-10-21T22:06:11.344Z,98196.80
2017-10-21T22:08:40.760Z,98206.30
2017-10-21T22:11:09.093Z,98213.73
2017-10-21T22:13:38.747Z,98206.06
2017-10-21T22:16:07.925Z,98205.77
2017-10-21T22:18:37.220Z,98203.95
2017-10-21T22:21:06.629Z,98212.70
2017-10-21T22:23:35.846Z,98198.65
2017-10-21T22:26:05.327Z,98194.59
2017-10-21T22:28:34.460Z,98201.80
2017-10-21T22:31:02.843Z,98202.75
2017-10-21T22:33:31.950Z,98200.77
2017-10-21T22:36:01.531Z,98198.77
2017-10-21T22:38:32.064Z,98200.22
2017-10-21T22:41:01.237Z,98204.82
2017-10-21T22:43:30.742Z,98204.23
2017-10-21T22:45:59.221Z,98213.43
2017-10-21T22:48:28.969Z,98215.49
2017-10-21T22:50:57.333Z,98211.76
2017-10-21T22:53:26.524Z,98206.47
2017-10-21T22:55:57.098Z,98199.45
2017-10-21T22:58:27.597Z,98207.72
2017-10-21T23:00:56.940Z,98196.02
2017-10-21T23:03:29.023Z,98196.92
2017-10-21T23:05:57.393Z,98204.60
2017-10-21T23:08:25.724Z,98202.75
2017-10-21T23:10:55.424Z,98202.31
2017-10-21T23:13:23.737Z,98194.08
2017-10-21T23:15:54.227Z,98197.73
2017-10-21T23:18:29.364Z,98198.57
2017-10-21T23:20:57.758Z,98196.36
2017-10-21T23:23:27.086Z,98193.85
2017-10-21T23:25:55.435Z,98200.72
2017-10-21T23:28:24.167Z,98189.98
2017-10-21T23:30:52.527Z,98194.97
2017-10-21T23:33:22.264Z,98191.30
2017-10-21T23:35:50.810Z,98197.35
2017-10-21T23:38:20.106Z,98205.45
2017-10-21T23:40:49.434Z,98195.03
2017-10-21T23:43:17.830Z,98194.05
2017-10-21T23:45:46.567Z,98193.79
2017-10-21T23:48:14.912Z,98197.88
2017-10-21T23:50:43.657Z,98197.45
2017-10-21T23:53:12.862Z,98200.61
2017-10-21T23:55:42.169Z,98203.41
2017-10-21T23:58:12.686Z,98203.03
